Time;durP1;ratioP1;P1;durP2;ratioP2;P2;SDS_P1;SDS_P2;PMS_P1;PMS_P2;Temp;Humidity;BMP_temperature;BMP_pressure;BME280_temperature;BME280_humidity;BME280_pressure;Samples;Min_cycle;Max_cycle;Signal;HPM_P1;HPM_P2
2023/05/30 00:01:54;;;;;;;7.70;2.00;;;15.00;85.20;;;;;;5060376;28;21214;-82
2023/05/30 00:04:21;;;;;;;11.67;2.00;;;15.00;84.70;;;;;;5080301;28;20016;-77
2023/05/30 00:06:47;;;;;;;10.73;2.23;;;14.70;85.50;;;;;;5060344;28;20037;-76
2023/05/30 00:09:18;;;;;;;6.13;1.87;;;12.90;82.20;;;;;;5070770;28;20036;-77
2023/05/30 00:11:44;;;;;;;9.07;2.00;;;14.70;83.70;;;;;;5076391;28;20024;-77
2023/05/30 00:14:20;;;;;;;10.00;2.50;;;14.50;86.80;;;;;;5058419;28;20037;-76
2023/05/30 00:16:47;;;;;;;8.63;1.87;;;14.90;82.50;;;;;;5062988;28;20032;-76
2023/05/30 00:19:14;;;;;;;11.93;2.20;;;14.40;83.80;;;;;;5059594;28;20025;-76
2023/05/30 00:21:45;;;;;;;14.87;2.27;;;14.80;84.90;;;;;;5059829;28;20056;-77
2023/05/30 00:24:11;;;;;;;7.17;2.03;;;14.50;82.60;;;;;;5062742;28;20040;-76
2023/05/30 00:26:39;;;;;;;7.37;1.80;;;14.40;83.80;;;;;;5059935;28;20039;-76
2023/05/30 00:29:10;;;;;;;6.97;1.57;;;13.50;82.70;;;;;;5056875;28;20109;-78
2023/05/30 00:31:35;;;;;;;9.57;1.70;;;14.40;82.00;;;;;;5064041;28;20041;-76
2023/05/30 00:34:04;;;;;;;9.50;2.13;;;14.20;83.50;;;;;;5057461;28;20039;-76
2023/05/30 00:36:32;;;;;;;10.27;2.10;;;14.40;84.30;;;;;;5062567;28;20020;-77
2023/05/30 00:38:58;;;;;;;8.13;1.90;;;14.20;82.50;;;;;;5065205;28;20093;-77
2023/05/30 00:41:23;;;;;;;8.13;1.90;;;15.00;86.50;;;;;;5062879;28;20040;-76
2023/05/30 00:43:49;;;;;;;7.30;2.00;;;13.80;86.40;;;;;;5060540;28;20009;-76
2023/05/30 00:46:15;;;;;;;8.77;1.90;;;15.20;86.80;;;;;;5058099;28;20017;-76
2023/05/30 00:48:41;;;;;;;11.80;2.40;;;13.70;84.60;;;;;;5079350;28;20029;-76
2023/05/30 00:51:10;;;;;;;7.57;1.90;;;14.10;86.70;;;;;;5057783;28;20040;-76
2023/05/30 00:53:37;;;;;;;8.03;2.13;;;13.70;84.50;;;;;;5063023;28;20047;-75
2023/05/30 00:56:06;;;;;;;7.80;1.93;;;15.00;85.50;;;;;;5070170;28;20009;-76
2023/05/30 00:58:35;;;;;;;11.33;2.10;;;14.00;87.00;;;;;;5069062;28;20096;-76
2023/05/30 01:01:01;;;;;;;5.50;1.73;;;14.00;85.40;;;;;;5058021;28;20043;-76
2023/05/30 01:04:15;;;;;;;11.73;1.90;;;14.10;87.80;;;;;;5061260;28;20029;-76
2023/05/30 01:06:46;;;;;;;7.70;2.60;;;13.30;85.30;;;;;;5056439;28;20045;-76
2023/05/30 01:09:18;;;;;;;6.50;1.73;;;14.00;88.20;;;;;;5074286;28;20025;-75
2023/05/30 01:12:10;;;;;;;10.88;2.45;;;13.30;85.80;;;;;;5070200;28;20067;-75
2023/05/30 01:14:57;;;;;;;9.85;2.05;;;13.70;86.10;;;;;;5077703;28;20071;-75
2023/05/30 01:17:57;;;;;;;11.33;2.43;;;13.30;86.80;;;;;;5059890;28;20021;-75
2023/05/30 01:20:36;;;;;;;7.13;1.70;;;13.60;87.70;;;;;;5058098;28;20021;-75
2023/05/30 01:24:00;;;;;;;7.93;1.80;;;13.30;88.30;;;;;;5061394;28;20021;-76
2023/05/30 01:27:04;;;;;;;11.73;2.20;;;13.50;88.70;;;;;;5074596;28;20020;-76
2023/05/30 01:29:35;;;;;;;9.30;2.47;;;13.20;88.60;;;;;;5073310;28;20056;-76
2023/05/30 01:32:20;;;;;;;7.37;2.13;;;13.00;88.80;;;;;;5062081;28;21611;-76
2023/05/30 01:34:48;;;;;;;6.40;1.70;;;13.30;90.10;;;;;;5069385;28;20056;-75
2023/05/30 01:37:16;;;;;;;6.87;1.87;;;14.60;91.00;;;;;;5059519;28;20084;-75
2023/05/30 01:39:42;;;;;;;8.43;2.23;;;13.20;90.70;;;;;;5074656;28;20037;-76
2023/05/30 01:42:33;;;;;;;8.97;2.40;;;12.90;91.30;;;;;;5057643;28;20033;-75
2023/05/30 01:45:22;;;;;;;9.17;2.53;;;13.80;90.80;;;;;;5068223;28;20036;-75
2023/05/30 01:48:17;;;;;;;11.20;1.93;;;12.80;90.80;;;;;;5063493;28;20036;-78
2023/05/30 01:50:48;;;;;;;7.67;2.03;;;12.90;91.30;;;;;;5055018;28;20036;-78
2023/05/30 01:53:33;;;;;;;11.20;2.23;;;12.60;92.10;;;;;;5060432;28;20021;-77
2023/05/30 01:56:01;;;;;;;8.80;2.80;;;12.40;92.60;;;;;;5060502;28;20009;-75
2023/05/30 01:58:28;;;;;;;16.53;2.67;;;12.90;93.80;;;;;;5075932;28;20031;-78
2023/05/30 02:00:59;;;;;;;7.43;2.17;;;12.90;94.10;;;;;;5059749;28;20108;-77
2023/05/30 02:03:28;;;;;;;9.53;2.53;;;12.40;94.30;;;;;;5058381;28;20028;-77
2023/05/30 02:05:54;;;;;;;10.97;2.30;;;13.10;94.90;;;;;;5055967;28;20021;-77
2023/05/30 02:08:20;;;;;;;11.20;2.30;;;13.40;95.70;;;;;;5075934;28;20076;-77
2023/05/30 02:10:46;;;;;;;10.77;2.73;;;12.50;95.80;;;;;;5054646;28;20025;-78
2023/05/30 02:13:12;;;;;;;7.23;2.00;;;12.30;96.60;;;;;;5059481;28;20029;-78
2023/05/30 02:15:47;;;;;;;10.97;2.43;;;13.00;97.30;;;;;;5061095;28;20073;-77
2023/05/30 02:18:19;;;;;;;12.07;2.30;;;13.20;96.70;;;;;;5067266;28;20025;-76
2023/05/30 02:20:45;;;;;;;6.37;2.10;;;12.20;98.30;;;;;;5075520;28;20043;-77
2023/05/30 02:23:13;;;;;;;9.00;2.10;;;12.00;98.00;;;;;;5060327;28;20292;-77
2023/05/30 02:25:38;;;;;;;11.23;2.07;;;12.50;99.30;;;;;;5063099;28;20017;-77
2023/05/30 02:28:06;;;;;;;9.57;2.37;;;11.60;98.00;;;;;;5058923;28;20021;-77
2023/05/30 02:30:34;;;;;;;8.40;2.30;;;11.80;97.80;;;;;;5060226;28;20025;-77
2023/05/30 02:33:00;;;;;;;9.93;2.10;;;11.80;98.70;;;;;;5076037;28;20041;-77
2023/05/30 02:35:26;;;;;;;7.70;2.03;;;11.70;99.20;;;;;;5058131;28;20020;-77
2023/05/30 02:37:54;;;;;;;11.17;2.07;;;11.70;99.60;;;;;;5058980;28;20040;-77
2023/05/30 02:40:19;;;;;;;22.13;2.63;;;11.60;99.90;;;;;;5063623;28;20056;-78
2023/05/30 02:42:49;;;;;;;8.67;1.83;;;11.50;99.90;;;;;;5060873;28;20024;-77
2023/05/30 02:45:14;;;;;;;9.43;1.93;;;11.60;99.90;;;;;;5061170;28;20048;-77
2023/05/30 02:47:40;;;;;;;10.83;2.00;;;11.50;99.90;;;;;;5057038;28;20044;-78
2023/05/30 02:50:07;;;;;;;10.17;2.10;;;11.50;99.90;;;;;;5074177;28;20021;-78
2023/05/30 02:52:33;;;;;;;13.00;2.33;;;11.50;99.90;;;;;;5056644;28;20051;-78
2023/05/30 02:55:09;;;;;;;9.20;1.93;;;11.50;99.90;;;;;;5058717;28;20143;-78
2023/05/30 02:57:37;;;;;;;11.80;2.93;;;11.40;99.90;;;;;;5077441;28;20026;-78
2023/05/30 03:00:03;;;;;;;12.10;2.53;;;11.40;99.90;;;;;;5079847;28;20063;-77
2023/05/30 03:02:30;;;;;;;14.57;2.53;;;11.40;99.90;;;;;;5063011;28;20147;-77
2023/05/30 03:04:56;;;;;;;10.50;2.37;;;11.30;99.90;;;;;;5063956;28;20035;-76
2023/05/30 03:07:22;;;;;;;16.40;2.20;;;11.40;99.90;;;;;;5072540;28;20096;-77
2023/05/30 03:09:50;;;;;;;6.07;1.93;;;11.30;99.90;;;;;;5078675;28;20024;-77
2023/05/30 03:12:18;;;;;;;12.50;2.53;;;11.30;99.90;;;;;;5066582;28;20076;-77
2023/05/30 03:14:46;;;;;;;13.63;2.20;;;11.30;99.90;;;;;;5060004;28;20032;-77
2023/05/30 03:17:13;;;;;;;11.13;2.50;;;11.20;99.90;;;;;;5064755;28;20036;-77
2023/05/30 03:19:38;;;;;;;15.30;3.00;;;11.20;99.90;;;;;;5062562;28;20009;-77
2023/05/30 03:22:07;;;;;;;11.77;2.43;;;11.20;99.90;;;;;;5061076;28;20035;-77
2023/05/30 03:24:35;;;;;;;16.73;2.90;;;11.20;99.90;;;;;;5078123;28;20019;-76
2023/05/30 03:27:03;;;;;;;15.07;2.97;;;11.20;99.90;;;;;;5078330;28;20033;-78
2023/05/30 03:29:34;;;;;;;11.10;2.57;;;11.10;99.90;;;;;;5063325;28;20025;-77
2023/05/30 03:32:02;;;;;;;9.10;2.40;;;11.00;99.90;;;;;;5073472;28;20016;-78
2023/05/30 03:34:31;;;;;;;18.07;3.23;;;11.00;99.90;;;;;;5060667;28;20096;-77
2023/05/30 03:36:59;;;;;;;11.90;2.93;;;11.00;99.90;;;;;;5059794;28;20033;-77
2023/05/30 03:39:28;;;;;;;13.60;2.80;;;11.00;99.90;;;;;;5060448;28;20037;-77
2023/05/30 03:41:58;;;;;;;13.33;2.70;;;11.00;99.90;;;;;;5063064;28;20052;-79
2023/05/30 03:44:31;;;;;;;21.17;3.57;;;11.00;99.90;;;;;;5063233;28;20076;-77
2023/05/30 03:47:04;;;;;;;12.57;2.53;;;10.90;99.90;;;;;;5061497;28;20021;-77
2023/05/30 03:49:32;;;;;;;12.57;2.97;;;10.90;99.90;;;;;;5060226;28;20037;-77
2023/05/30 03:52:01;;;;;;;12.27;2.70;;;10.90;99.90;;;;;;5062522;28;20029;-77
2023/05/30 03:54:27;;;;;;;8.77;2.87;;;10.90;99.90;;;;;;5070651;28;20188;-77
2023/05/30 03:56:53;;;;;;;11.23;2.57;;;10.90;99.90;;;;;;5064730;28;20097;-77
2023/05/30 03:59:18;;;;;;;13.87;3.33;;;10.80;99.90;;;;;;5060970;28;20017;-77
2023/05/30 04:01:49;;;;;;;13.53;3.70;;;10.80;99.90;;;;;;5072044;28;20024;-77
2023/05/30 04:04:20;;;;;;;13.97;2.40;;;10.80;99.90;;;;;;5059747;28;20021;-77
2023/05/30 04:06:47;;;;;;;16.80;3.10;;;10.80;99.90;;;;;;5060585;28;20027;-77
2023/05/30 04:09:13;;;;;;;13.10;2.80;;;10.80;99.90;;;;;;5060874;28;20013;-77
2023/05/30 04:11:44;;;;;;;17.17;3.47;;;10.70;99.90;;;;;;5062199;28;20017;-77
2023/05/30 04:14:17;;;;;;;14.30;2.83;;;10.70;99.90;;;;;;5074031;28;20033;-77
2023/05/30 04:16:47;;;;;;;15.70;2.77;;;10.80;99.90;;;;;;5062516;28;20024;-77
2023/05/30 04:19:13;;;;;;;12.40;3.13;;;10.70;99.90;;;;;;5058272;28;20024;-77
2023/05/30 04:21:38;;;;;;;14.80;3.00;;;10.70;99.90;;;;;;5061955;28;20047;-77
2023/05/30 04:24:05;;;;;;;18.87;3.63;;;10.60;99.90;;;;;;5061027;28;20009;-77
2023/05/30 04:26:38;;;;;;;17.00;3.90;;;10.60;99.90;;;;;;5063299;28;20099;-77
2023/05/30 04:29:04;;;;;;;17.47;4.53;;;10.60;99.90;;;;;;5074959;28;20024;-77
2023/05/30 04:31:33;;;;;;;12.07;3.07;;;10.60;99.90;;;;;;5060369;28;20017;-78
2023/05/30 04:33:59;;;;;;;16.17;3.60;;;10.60;99.90;;;;;;5078280;28;20056;-78
2023/05/30 04:36:30;;;;;;;16.83;3.07;;;10.60;99.90;;;;;;5056224;28;20044;-77
2023/05/30 04:39:06;;;;;;;18.27;3.87;;;10.60;99.90;;;;;;5058261;28;20028;-77
2023/05/30 04:41:32;;;;;;;17.03;4.67;;;10.60;99.90;;;;;;5070562;28;20029;-78
2023/05/30 04:43:58;;;;;;;17.53;4.30;;;10.50;99.90;;;;;;5069999;28;20052;-77
2023/05/30 04:46:24;;;;;;;13.97;4.07;;;10.60;99.90;;;;;;5061765;28;20027;-78
2023/05/30 04:49:00;;;;;;;22.87;4.10;;;10.60;99.90;;;;;;5063188;28;20105;-77
2023/05/30 04:51:28;;;;;;;15.40;4.13;;;10.50;99.90;;;;;;5061754;28;20039;-77
2023/05/30 04:53:57;;;;;;;18.50;3.97;;;10.70;99.90;;;;;;5057174;28;20093;-77
2023/05/30 04:56:26;;;;;;;17.03;3.90;;;10.60;99.90;;;;;;5062802;28;20036;-77
2023/05/30 04:59:02;;;;;;;;;;;;;;;;;;;;;
2023/05/30 05:01:28;;;;;;;16.73;4.63;;;10.70;99.90;;;;;;5080661;28;20068;-78
2023/05/30 05:03:54;;;;;;;19.40;4.97;;;10.60;99.90;;;;;;5062357;28;20024;-76
2023/05/30 05:06:22;;;;;;;14.07;4.77;;;10.70;99.90;;;;;;5063175;28;20017;-77
2023/05/30 05:08:48;;;;;;;20.97;4.67;;;10.70;99.90;;;;;;5081488;28;20009;-77
2023/05/30 05:11:18;;;;;;;23.13;5.37;;;10.70;99.90;;;;;;5059997;28;20027;-77
2023/05/30 05:13:46;;;;;;;14.50;4.70;;;10.60;99.90;;;;;;5059804;28;20029;-77
2023/05/30 05:16:12;;;;;;;16.53;4.73;;;10.60;99.90;;;;;;5060473;28;20004;-77
2023/05/30 05:18:40;;;;;;;19.33;5.60;;;10.70;99.90;;;;;;5060918;28;20023;-77
2023/05/30 05:21:08;;;;;;;17.67;4.40;;;10.70;99.90;;;;;;5056587;28;20062;-77
2023/05/30 05:23:33;;;;;;;16.80;5.23;;;10.60;99.90;;;;;;5061147;28;20136;-76
2023/05/30 05:26:02;;;;;;;23.67;5.80;;;10.60;99.90;;;;;;5075406;28;20021;-77
2023/05/30 05:28:28;;;;;;;14.93;5.33;;;10.70;99.90;;;;;;5061355;28;20009;-77
2023/05/30 05:30:54;;;;;;;16.87;5.43;;;10.70;99.90;;;;;;5057770;28;20024;-77
2023/05/30 05:33:20;;;;;;;19.77;5.43;;;10.80;99.90;;;;;;5077303;28;20024;-78
2023/05/30 05:35:53;;;;;;;18.50;5.13;;;10.70;99.90;;;;;;5060946;28;20017;-77
2023/05/30 05:38:21;;;;;;;20.07;5.03;;;10.80;99.90;;;;;;5060130;28;20021;-76
2023/05/30 05:40:49;;;;;;;20.70;6.40;;;10.80;99.90;;;;;;5060248;28;20040;-77
2023/05/30 05:43:15;;;;;;;21.90;6.30;;;10.70;99.90;;;;;;5075637;28;20024;-76
2023/05/30 05:45:40;;;;;;;19.17;5.70;;;10.80;99.90;;;;;;5062703;28;20108;-79
2023/05/30 05:48:08;;;;;;;27.97;6.93;;;10.80;99.90;;;;;;5060547;28;20093;-78
2023/05/30 05:50:36;;;;;;;17.27;5.37;;;10.90;99.90;;;;;;5056907;28;20013;-77
2023/05/30 05:53:07;;;;;;;25.67;6.13;;;10.90;99.90;;;;;;5062193;28;20085;-77
2023/05/30 05:55:38;;;;;;;21.33;5.70;;;11.00;99.90;;;;;;5077139;28;20028;-78
2023/05/30 05:58:17;;;;;;;22.13;5.67;;;11.00;99.90;;;;;;5076128;28;20031;-77
2023/05/30 06:00:52;;;;;;;19.93;5.80;;;11.00;99.90;;;;;;5076857;28;20351;-77
2023/05/30 06:03:18;;;;;;;17.90;5.10;;;11.00;99.90;;;;;;5057673;28;20017;-77
2023/05/30 06:05:51;;;;;;;16.07;5.03;;;11.10;99.90;;;;;;5056682;28;20100;-77
2023/05/30 06:08:19;;;;;;;16.73;5.07;;;11.10;99.90;;;;;;5072371;28;20009;-77
2023/05/30 06:10:45;;;;;;;20.07;5.17;;;11.20;99.90;;;;;;5058040;28;20043;-77
2023/05/30 06:13:11;;;;;;;17.77;5.70;;;11.30;99.90;;;;;;5055130;28;20061;-77
2023/05/30 06:15:36;;;;;;;17.00;4.70;;;11.30;99.90;;;;;;5061523;28;20029;-77
2023/05/30 06:18:04;;;;;;;16.93;4.83;;;11.40;99.90;;;;;;5063121;28;20043;-77
2023/05/30 06:20:33;;;;;;;19.43;4.50;;;11.40;99.90;;;;;;5075077;28;20048;-77
2023/05/30 06:22:58;;;;;;;22.90;5.87;;;11.50;99.90;;;;;;5073288;28;20018;-77
2023/05/30 06:25:31;;;;;;;21.33;4.20;;;11.50;99.90;;;;;;5055075;28;20052;-78
2023/05/30 06:28:04;;;;;;;15.97;4.77;;;11.50;99.90;;;;;;5062016;28;20021;-77
2023/05/30 06:30:40;;;;;;;;;;;;;;;;;;;;;
2023/05/30 06:33:10;;;;;;;20.77;5.17;;;11.60;99.90;;;;;;5078652;28;20013;-77
2023/05/30 06:35:36;;;;;;;17.20;4.30;;;11.70;99.90;;;;;;5072808;28;20017;-77
2023/05/30 06:38:04;;;;;;;19.27;4.93;;;11.70;99.90;;;;;;5064452;28;20039;-77
2023/05/30 06:40:32;;;;;;;19.43;4.93;;;11.80;99.90;;;;;;5062279;28;20029;-77
2023/05/30 06:43:00;;;;;;;19.83;4.63;;;11.90;99.90;;;;;;5068160;28;20012;-77
2023/05/30 06:45:25;;;;;;;17.37;5.10;;;11.90;99.90;;;;;;5065042;28;20084;-77
2023/05/30 06:47:53;;;;;;;14.73;5.37;;;11.90;99.90;;;;;;5063910;28;20060;-77
2023/05/30 06:50:19;;;;;;;18.27;5.00;;;12.00;99.90;;;;;;5080153;28;20034;-77
2023/05/30 06:52:47;;;;;;;13.90;4.40;;;12.00;99.90;;;;;;5080734;28;20021;-78
2023/05/30 06:55:16;;;;;;;18.10;4.93;;;12.00;99.90;;;;;;5081156;28;20019;-77
2023/05/30 06:57:44;;;;;;;15.67;5.60;;;12.10;99.90;;;;;;5061962;28;20025;-76
2023/05/30 07:00:12;;;;;;;16.20;4.50;;;12.10;99.90;;;;;;5062399;28;20050;-77
2023/05/30 07:02:41;;;;;;;16.20;5.13;;;12.20;99.90;;;;;;5064853;28;20033;-77
2023/05/30 07:05:14;;;;;;;22.33;5.37;;;12.20;99.90;;;;;;5062160;28;20085;-77
2023/05/30 07:07:42;;;;;;;18.33;5.27;;;12.20;99.90;;;;;;5064164;28;20018;-75
2023/05/30 07:10:18;;;;;;;21.77;5.43;;;12.20;99.90;;;;;;5069767;28;20018;-75
2023/05/30 07:12:48;;;;;;;20.70;5.17;;;12.20;99.90;;;;;;5065065;28;20018;-76
2023/05/30 07:15:14;;;;;;;16.03;5.17;;;12.20;99.90;;;;;;5080462;28;20032;-76
2023/05/30 07:17:50;;;;;;;;;;;;;;;;;;;;;
2023/05/30 07:20:22;;;;;;;15.00;4.97;;;12.20;99.90;;;;;;5076710;28;20055;-75
2023/05/30 07:25:47;;;;;;;12.70;4.10;;;12.20;99.90;;;;;;5069847;28;20025;-75
2023/05/30 07:28:22;;;;;;;18.73;5.53;;;12.30;99.90;;;;;;5075060;28;20012;-76
2023/05/30 07:30:50;;;;;;;20.97;5.03;;;12.30;99.90;;;;;;5076667;28;20048;-77
2023/05/30 07:33:18;;;;;;;15.90;5.93;;;12.30;99.90;;;;;;5064802;28;20052;-77
2023/05/30 07:35:46;;;;;;;16.37;5.30;;;12.40;99.90;;;;;;5079450;28;20092;-77
2023/05/30 07:38:12;;;;;;;14.37;5.57;;;12.50;99.90;;;;;;5075463;28;20052;-77
2023/05/30 07:40:40;;;;;;;16.93;4.90;;;12.50;99.90;;;;;;5062168;28;20020;-77
2023/05/30 07:43:06;;;;;;;18.57;5.80;;;12.50;99.90;;;;;;5061528;28;20044;-77
2023/05/30 07:45:31;;;;;;;17.10;5.67;;;12.60;99.90;;;;;;5064764;28;20135;-76
2023/05/30 07:48:00;;;;;;;17.30;6.03;;;12.60;99.90;;;;;;5061260;28;20051;-77
2023/05/30 07:50:28;;;;;;;17.13;5.27;;;12.60;99.90;;;;;;5064312;28;20036;-77
2023/05/30 07:53:02;;;;;;;17.30;5.53;;;12.70;99.90;;;;;;5059148;28;20035;-76
2023/05/30 07:55:28;;;;;;;16.70;5.27;;;12.70;99.90;;;;;;5058724;28;20012;-77
2023/05/30 07:57:54;;;;;;;13.13;4.63;;;12.70;99.90;;;;;;5080858;28;20094;-76
2023/05/30 08:00:20;;;;;;;16.83;5.37;;;12.80;99.90;;;;;;5078920;28;20048;-78
2023/05/30 08:02:45;;;;;;;18.10;6.03;;;12.80;99.90;;;;;;5060653;28;20017;-79
2023/05/30 08:05:11;;;;;;;26.43;6.37;;;12.80;99.90;;;;;;5063289;28;20041;-78
2023/05/30 08:07:37;;;;;;;19.53;5.40;;;12.90;99.90;;;;;;5064579;28;20017;-79
2023/05/30 08:10:03;;;;;;;16.73;5.80;;;12.90;99.90;;;;;;5077823;28;20114;-77
2023/05/30 08:12:29;;;;;;;16.13;5.23;;;13.00;99.90;;;;;;5059706;28;20084;-80
2023/05/30 08:14:57;;;;;;;17.77;5.33;;;13.00;99.90;;;;;;5062246;28;20080;-79
2023/05/30 08:17:29;;;;;;;16.90;5.20;;;13.00;99.90;;;;;;5058667;28;20029;-78
2023/05/30 08:19:55;;;;;;;20.20;5.88;;;13.10;99.90;;;;;;5064753;28;20024;-78
2023/05/30 08:22:24;;;;;;;14.03;5.33;;;13.20;99.90;;;;;;5061871;28;20052;-77
2023/05/30 08:24:56;;;;;;;16.60;5.73;;;13.30;99.90;;;;;;5077659;28;20084;-78
2023/05/30 08:27:23;;;;;;;14.00;5.97;;;13.20;99.90;;;;;;5060381;28;20024;-78
2023/05/30 08:29:49;;;;;;;15.33;5.70;;;13.20;99.90;;;;;;5061857;28;20021;-78
2023/05/30 08:32:18;;;;;;;19.77;5.97;;;13.30;99.90;;;;;;5062843;28;20020;-79
2023/05/30 08:34:45;;;;;;;21.73;5.40;;;13.30;99.90;;;;;;5077662;28;20021;-79
2023/05/30 08:37:11;;;;;;;12.80;5.13;;;13.50;99.90;;;;;;5072176;28;20086;-79
2023/05/30 08:39:42;;;;;;;15.40;5.90;;;13.60;99.90;;;;;;5066042;28;20020;-78
2023/05/30 08:42:09;;;;;;;18.97;6.33;;;13.60;99.90;;;;;;5066558;28;20100;-79
2023/05/30 08:44:35;;;;;;;18.43;5.70;;;13.60;99.90;;;;;;5078812;28;20081;-78
2023/05/30 08:47:03;;;;;;;18.77;5.87;;;13.60;99.90;;;;;;5057402;28;20029;-78
2023/05/30 08:49:33;;;;;;;14.07;5.53;;;13.60;99.90;;;;;;5058405;28;20033;-78
2023/05/30 08:52:05;;;;;;;16.73;5.90;;;13.70;99.90;;;;;;5059251;28;20024;-77
2023/05/30 08:54:50;;;;;;;17.13;6.63;;;13.70;99.90;;;;;;5060400;28;20025;-77
2023/05/30 08:57:26;;;;;;;20.73;6.27;;;13.80;99.90;;;;;;5060613;28;20013;-78
2023/05/30 08:59:55;;;;;;;21.00;5.53;;;13.80;99.90;;;;;;5061104;28;20108;-78
2023/05/30 09:02:21;;;;;;;20.43;6.67;;;13.80;99.90;;;;;;5060725;28;20047;-79
2023/05/30 09:04:52;;;;;;;15.43;5.47;;;13.90;99.90;;;;;;5060158;28;20022;-78
2023/05/30 09:07:21;;;;;;;15.47;5.60;;;14.00;99.90;;;;;;5078426;28;20020;-78
2023/05/30 09:09:49;;;;;;;19.97;6.23;;;14.10;99.90;;;;;;5063150;28;20043;-78
2023/05/30 09:12:18;;;;;;;14.87;6.10;;;14.10;99.90;;;;;;5063422;28;20016;-78
2023/05/30 09:14:44;;;;;;;14.53;6.03;;;14.10;99.90;;;;;;5065218;28;20534;-78
2023/05/30 09:17:09;;;;;;;16.33;6.20;;;14.10;99.90;;;;;;5060131;28;20032;-78
2023/05/30 09:19:38;;;;;;;15.80;5.23;;;14.20;99.90;;;;;;5062152;28;20037;-79
2023/05/30 09:22:10;;;;;;;22.53;6.57;;;14.10;99.90;;;;;;5055535;28;20047;-78
2023/05/30 09:24:56;;;;;;;;;;;14.20;99.90;;;;;;5061962;28;20048;-77
2023/05/30 09:27:28;;;;;;;16.23;5.83;;;14.20;99.90;;;;;;5069071;28;19936;-78
2023/05/30 09:29:55;;;;;;;20.10;5.70;;;14.30;99.90;;;;;;5061501;28;20025;-78
2023/05/30 09:32:34;;;;;;;15.60;5.73;;;14.40;99.90;;;;;;5070483;28;20036;-78
2023/05/30 09:35:04;;;;;;;16.63;5.97;;;14.50;99.90;;;;;;5057668;28;20021;-77
2023/05/30 09:37:50;;;;;;;19.33;5.67;;;14.50;99.90;;;;;;5073737;28;20020;-78
2023/05/30 09:40:16;;;;;;;16.17;6.20;;;14.60;99.90;;;;;;5057322;28;20036;-77
2023/05/30 09:42:54;;;;;;;21.27;6.23;;;14.60;99.90;;;;;;5068361;28;20097;-78
2023/05/30 09:45:25;;;;;;;16.97;5.80;;;14.80;99.90;;;;;;5061670;28;20059;-77
2023/05/30 09:47:52;;;;;;;15.37;5.77;;;14.80;99.90;;;;;;5058387;28;20025;-78
2023/05/30 09:50:23;;;;;;;18.23;6.03;;;14.80;99.90;;;;;;5073289;28;20017;-79
2023/05/30 09:52:54;;;;;;;13.70;5.40;;;14.90;99.90;;;;;;5053500;28;20040;-78
2023/05/30 09:55:26;;;;;;;20.13;6.10;;;14.90;99.90;;;;;;5074636;28;20029;-78
2023/05/30 09:57:53;;;;;;;15.98;5.18;;;15.00;99.90;;;;;;5060682;28;20033;-78
2023/05/30 10:00:25;;;;;;;20.43;6.50;;;15.10;99.90;;;;;;5059856;28;20036;-78
2023/05/30 10:02:57;;;;;;;19.80;6.47;;;15.10;99.90;;;;;;5059712;28;20009;-77
2023/05/30 10:05:24;;;;;;;;;;;15.10;99.90;;;;;;5062582;28;20033;-78
2023/05/30 10:07:51;;;;;;;15.70;5.33;;;15.10;99.90;;;;;;5057389;28;20108;-78
2023/05/30 10:10:18;;;;;;;16.50;4.93;;;15.20;99.90;;;;;;5054576;28;20024;-77
2023/05/30 10:12:48;;;;;;;15.00;4.85;;;15.30;99.90;;;;;;5057457;28;20036;-78
2023/05/30 10:15:16;;;;;;;14.02;5.60;;;15.40;99.90;;;;;;5061855;28;20140;-78
2023/05/30 10:17:48;;;;;;;11.18;4.50;;;15.40;99.90;;;;;;5075118;28;20025;-78
2023/05/30 10:20:26;;;;;;;16.80;5.75;;;15.40;99.90;;;;;;5059300;28;20045;-78
2023/05/30 10:22:59;;;;;;;18.95;7.32;;;15.50;99.90;;;;;;5076705;28;20045;-78
2023/05/30 10:25:29;;;;;;;15.35;5.60;;;15.50;99.90;;;;;;5056543;28;20028;-78
2023/05/30 10:28:00;;;;;;;14.23;5.13;;;15.60;99.90;;;;;;5060685;28;20039;-77
2023/05/30 10:30:30;;;;;;;14.23;5.80;;;15.70;99.90;;;;;;5057479;28;20025;-77
2023/05/30 10:33:09;;;;;;;14.55;5.65;;;15.80;99.90;;;;;;5074194;28;20081;-78
2023/05/30 10:35:35;;;;;;;18.10;6.25;;;15.80;99.90;;;;;;5072273;28;20028;-77
2023/05/30 10:38:06;;;;;;;14.40;6.07;;;15.90;99.90;;;;;;5056379;28;20118;-79
2023/05/30 10:40:51;;;;;;;14.50;5.53;;;15.90;99.90;;;;;;5059144;28;20040;-81
2023/05/30 10:43:35;;;;;;;13.95;5.80;;;16.10;99.90;;;;;;5058882;28;20034;-78
2023/05/30 10:46:23;;;;;;;14.90;5.75;;;16.30;99.90;;;;;;5058795;28;20025;-77
2023/05/30 10:49:09;;;;;;;16.58;5.50;;;16.30;99.90;;;;;;5058256;28;20172;-78
2023/05/30 10:52:01;;;;;;;16.73;5.88;;;16.30;99.90;;;;;;5065511;28;20029;-78
2023/05/30 10:54:30;;;;;;;14.45;5.38;;;16.30;99.90;;;;;;5072989;28;20047;-79
2023/05/30 10:56:56;;;;;;;16.40;6.22;;;16.30;99.90;;;;;;5057155;28;20017;-78
2023/05/30 10:59:23;;;;;;;20.08;5.80;;;16.40;99.90;;;;;;5057097;28;20029;-78
2023/05/30 11:02:04;;;;;;;13.18;5.55;;;16.40;99.90;;;;;;5056280;28;20042;-77
2023/05/30 11:04:32;;;;;;;13.88;4.82;;;16.50;99.90;;;;;;5055624;28;20144;-78
2023/05/30 11:06:57;;;;;;;14.23;5.93;;;16.50;99.90;;;;;;5068805;28;21047;-78
2023/05/30 11:09:23;;;;;;;16.45;5.55;;;16.50;99.90;;;;;;5054610;28;20020;-78
2023/05/30 11:12:00;;;;;;;13.25;5.82;;;16.60;99.90;;;;;;5055455;28;20168;-78
2023/05/30 11:14:28;;;;;;;15.38;5.30;;;16.60;99.90;;;;;;5063871;28;20089;-79
2023/05/30 11:17:01;;;;;;;12.90;4.50;;;16.70;99.90;;;;;;5070834;28;20021;-78
2023/05/30 11:19:40;;;;;;;14.20;4.63;;;16.80;99.90;;;;;;5074858;28;20088;-80
2023/05/30 11:22:16;;;;;;;13.07;4.88;;;16.80;99.90;;;;;;5056057;28;20104;-78
2023/05/30 11:24:45;;;;;;;15.40;5.13;;;16.80;99.90;;;;;;5058285;28;20038;-79
2023/05/30 11:27:19;;;;;;;20.23;5.93;;;16.90;99.90;;;;;;5074524;28;20081;-79
2023/05/30 11:29:57;;;;;;;11.60;4.60;;;16.90;99.90;;;;;;5056911;28;20036;-78
2023/05/30 11:32:24;;;;;;;18.52;5.30;;;17.00;99.90;;;;;;5071381;28;20024;-80
2023/05/30 11:35:11;;;;;;;16.50;4.97;;;17.00;99.10;;;;;;5070796;28;20088;-81
2023/05/30 11:37:41;;;;;;;16.33;5.32;;;17.10;99.60;;;;;;5054125;28;20052;-80
2023/05/30 11:40:14;;;;;;;13.10;5.20;;;17.20;99.10;;;;;;5058620;28;20017;-80
2023/05/30 11:42:39;;;;;;;11.35;4.78;;;17.30;96.90;;;;;;5075048;28;20021;-79
2023/05/30 11:45:07;;;;;;;15.43;4.53;;;17.30;95.40;;;;;;5054993;28;20040;-77
2023/05/30 11:47:32;;;;;;;19.75;4.00;;;17.30;95.70;;;;;;5056508;28;20013;-77
2023/05/30 11:49:58;;;;;;;18.55;4.63;;;17.50;95.80;;;;;;5072858;28;20115;-78
2023/05/30 11:52:29;;;;;;;13.60;5.10;;;17.60;94.90;;;;;;5053521;28;20047;-78
2023/05/30 11:55:00;;;;;;;18.60;5.07;;;17.60;93.80;;;;;;5073424;28;20017;-77
2023/05/30 11:57:27;;;;;;;17.52;4.43;;;17.60;94.50;;;;;;5052908;28;20028;-76
2023/05/30 11:59:54;;;;;;;14.15;4.20;;;17.80;93.80;;;;;;5055195;28;20031;-78
2023/05/30 12:02:33;;;;;;;12.23;4.68;;;17.90;93.10;;;;;;5068268;28;20029;-78
2023/05/30 12:05:02;;;;;;;10.10;4.05;;;18.00;92.30;;;;;;5051059;28;20017;-78
2023/05/30 12:07:33;;;;;;;17.05;4.90;;;17.90;91.60;;;;;;5056529;28;20044;-78
2023/05/30 12:09:58;;;;;;;11.95;4.45;;;17.90;92.60;;;;;;5047807;28;20025;-78
2023/05/30 12:12:25;;;;;;;11.55;3.67;;;18.10;92.50;;;;;;5051516;28;20233;-78
2023/05/30 12:14:51;;;;;;;9.65;3.83;;;18.10;88.80;;;;;;5051673;28;20180;-76
2023/05/30 12:17:21;;;;;;;11.85;4.10;;;18.10;82.70;;;;;;5064807;28;20025;-78
2023/05/30 12:19:59;;;;;;;12.77;4.63;;;18.10;86.50;;;;;;5066494;28;20025;-79
2023/05/30 12:22:29;;;;;;;11.75;4.07;;;18.10;88.50;;;;;;5057307;28;20063;-78
2023/05/30 12:24:54;;;;;;;13.27;4.50;;;18.10;86.90;;;;;;5063431;28;20261;-79
2023/05/30 12:27:23;;;;;;;10.52;3.65;;;18.20;87.70;;;;;;5066586;28;20016;-78
2023/05/30 12:29:49;;;;;;;9.95;3.97;;;18.40;88.50;;;;;;5049003;28;20029;-79
2023/05/30 12:32:24;;;;;;;10.20;4.72;;;18.50;89.80;;;;;;5065487;28;20051;-78
2023/05/30 12:34:49;;;;;;;9.13;3.72;;;18.50;89.10;;;;;;5046545;28;20315;-79
2023/05/30 12:37:22;;;;;;;9.00;3.55;;;18.50;87.30;;;;;;5048887;28;20024;-79
2023/05/30 12:39:53;;;;;;;13.35;3.75;;;18.50;82.40;;;;;;5064343;28;20056;-79
2023/05/30 12:42:30;;;;;;;17.15;3.92;;;18.70;84.40;;;;;;5055224;28;20060;-78
2023/05/30 12:44:56;;;;;;;10.13;3.25;;;18.80;85.70;;;;;;5050684;28;20037;-79
2023/05/30 12:47:23;;;;;;;11.20;3.75;;;18.80;87.60;;;;;;5050496;28;20028;-82
2023/05/30 12:49:50;;;;;;;11.43;4.13;;;19.00;87.80;;;;;;5054277;28;20033;-79
2023/05/30 12:52:24;;;;;;;12.63;3.90;;;19.10;82.00;;;;;;5053196;28;20026;-79
2023/05/30 12:54:50;;;;;;;12.32;4.28;;;19.10;78.20;;;;;;5052867;28;20052;-76
2023/05/30 12:57:19;;;;;;;9.25;3.92;;;19.10;80.00;;;;;;5071272;28;20018;-77
2023/05/30 12:59:45;;;;;;;13.75;3.67;;;19.30;82.50;;;;;;5068320;28;20017;-77
2023/05/30 13:02:11;;;;;;;11.65;4.10;;;19.40;82.40;;;;;;5069190;28;20040;-77